Time;durP1;ratioP1;P1;durP2;ratioP2;P2;SDS_P1;SDS_P2;PMS_P1;PMS_P2;Temp;Humidity;BMP_temperature;BMP_pressure;BME280_temperature;BME280_humidity;BME280_pressure;Samples;Min_cycle;Max_cycle;Signal;HPM_P1;HPM_P2
2024/04/12 00:01:48;;;;;;;43.72;20.70;;;13.10;99.90;;;;;;5477627;26;20022;-69
2024/04/12 00:04:20;;;;;;;48.08;22.35;;;13.10;99.90;;;;;;5483279;26;20050;-69
2024/04/12 00:07:00;;;;;;;40.42;20.55;;;13.10;99.90;;;;;;5470647;26;20030;-69
2024/04/12 00:09:29;;;;;;;52.47;23.38;;;13.10;99.90;;;;;;5469800;26;20030;-69
2024/04/12 00:12:00;;;;;;;47.30;23.92;;;13.10;99.90;;;;;;5478320;26;20030;-69
2024/04/12 00:14:27;;;;;;;47.47;24.70;;;13.10;99.90;;;;;;5465401;26;20396;-69
2024/04/12 00:16:54;;;;;;;55.17;25.23;;;13.20;99.90;;;;;;5466846;26;20018;-69
2024/04/12 00:19:25;;;;;;;50.95;25.42;;;13.10;99.90;;;;;;5455180;26;20031;-69
2024/04/12 00:21:55;;;;;;;47.47;24.73;;;13.20;99.90;;;;;;5480102;26;20042;-69
2024/04/12 00:24:26;;;;;;;52.60;26.90;;;13.20;99.90;;;;;;5478529;26;20034;-68
2024/04/12 00:26:58;;;;;;;49.15;25.83;;;13.20;99.90;;;;;;5460026;26;20039;-69
2024/04/12 00:29:36;;;;;;;50.53;27.23;;;13.20;99.90;;;;;;5468061;26;20035;-68
2024/04/12 00:32:13;;;;;;;56.50;27.73;;;13.20;99.90;;;;;;5477913;26;20029;-69
2024/04/12 00:34:47;;;;;;;58.55;27.73;;;13.20;99.90;;;;;;5451387;26;20035;-69
2024/04/12 00:37:20;;;;;;;57.17;28.75;;;13.20;99.90;;;;;;5458184;26;20034;-69
2024/04/12 00:39:49;;;;;;;53.47;27.83;;;13.30;99.90;;;;;;5469651;26;20030;-69
2024/04/12 00:42:26;;;;;;;53.38;28.40;;;13.30;99.90;;;;;;5474260;26;20022;-71
2024/04/12 00:44:58;;;;;;;50.42;28.40;;;13.30;99.90;;;;;;5476411;26;20034;-71
2024/04/12 00:47:27;;;;;;;52.57;28.63;;;13.30;99.90;;;;;;5469807;26;20026;-70
2024/04/12 00:49:56;;;;;;;53.65;28.40;;;13.30;99.90;;;;;;5476309;26;20035;-71
2024/04/12 00:52:33;;;;;;;51.95;28.23;;;13.30;99.90;;;;;;5468275;26;20042;-70
2024/04/12 00:55:08;;;;;;;52.15;28.30;;;13.30;99.90;;;;;;5481525;26;20038;-70
2024/04/12 00:57:41;;;;;;;52.25;29.52;;;13.30;99.90;;;;;;5461911;26;20042;-71
2024/04/12 01:00:19;;;;;;;49.33;27.73;;;13.30;99.90;;;;;;5465285;26;20033;-71
2024/04/12 01:02:49;;;;;;;46.85;27.45;;;13.30;99.90;;;;;;5482547;26;20026;-71
2024/04/12 01:05:17;;;;;;;52.35;28.80;;;13.30;99.90;;;;;;5469521;26;20031;-70
2024/04/12 01:07:55;;;;;;;47.40;28.70;;;13.40;99.90;;;;;;5463192;26;20023;-71
2024/04/12 01:10:30;;;;;;;44.95;27.27;;;13.40;99.90;;;;;;5481844;26;20022;-71
2024/04/12 01:13:01;;;;;;;48.72;28.52;;;13.40;99.90;;;;;;5472459;26;20375;-70
2024/04/12 01:15:36;;;;;;;52.38;28.35;;;13.40;99.90;;;;;;5469398;26;20031;-70
2024/04/12 01:18:15;;;;;;;49.92;28.20;;;13.40;99.90;;;;;;5468979;26;20026;-70
2024/04/12 01:20:43;;;;;;;47.38;27.45;;;13.40;99.90;;;;;;5469409;26;20368;-70
2024/04/12 01:23:10;;;;;;;47.00;27.10;;;13.40;99.90;;;;;;5468973;26;20034;-70
2024/04/12 01:25:37;;;;;;;45.53;28.08;;;13.40;99.90;;;;;;5455332;26;20027;-70
2024/04/12 01:28:04;;;;;;;47.22;27.15;;;13.40;99.90;;;;;;5460557;26;20039;-70
2024/04/12 01:30:34;;;;;;;42.15;27.05;;;13.40;99.90;;;;;;5461864;26;20035;-70
2024/04/12 01:33:01;;;;;;;43.70;26.67;;;13.40;99.90;;;;;;5461401;26;20026;-71
2024/04/12 01:35:33;;;;;;;42.88;26.95;;;13.50;99.90;;;;;;5480147;26;20106;-70
2024/04/12 01:38:16;;;;;;;43.35;26.30;;;13.40;99.90;;;;;;5469766;26;20029;-70
2024/04/12 01:40:46;;;;;;;40.58;25.88;;;13.40;99.90;;;;;;5476791;26;20031;-70
2024/04/12 01:43:13;;;;;;;43.78;25.10;;;13.40;99.90;;;;;;5473992;26;20035;-70
2024/04/12 01:45:40;;;;;;;44.13;25.83;;;13.40;99.90;;;;;;5472809;26;20029;-69
2024/04/12 01:48:07;;;;;;;43.53;25.95;;;13.40;99.90;;;;;;5458190;26;20493;-69
2024/04/12 01:50:34;;;;;;;43.10;25.98;;;13.40;99.90;;;;;;5458462;26;20383;-69
2024/04/12 01:53:09;;;;;;;43.10;26.25;;;13.40;99.90;;;;;;5470987;26;21744;-69
2024/04/12 01:55:39;;;;;;;42.40;25.30;;;13.50;99.90;;;;;;5454659;26;20466;-69
2024/04/12 01:58:06;;;;;;;42.75;26.05;;;13.50;99.90;;;;;;5479496;26;20046;-70
2024/04/12 02:00:35;;;;;;;38.38;25.40;;;13.40;99.90;;;;;;5457483;26;20030;-70
2024/04/12 02:03:02;;;;;;;41.25;26.63;;;13.40;99.90;;;;;;5463924;26;20026;-70
2024/04/12 02:05:32;;;;;;;42.15;25.92;;;13.40;99.90;;;;;;5453116;26;20050;-70
2024/04/12 02:08:07;;;;;;;43.15;26.23;;;13.40;99.90;;;;;;5466907;26;20034;-69
2024/04/12 02:10:41;;;;;;;45.60;26.42;;;13.40;99.90;;;;;;5464250;26;20035;-69
2024/04/12 02:13:10;;;;;;;43.95;26.60;;;13.40;99.90;;;;;;5457202;26;20482;-70
2024/04/12 02:15:40;;;;;;;42.67;25.80;;;13.40;99.90;;;;;;5471452;26;20026;-70
2024/04/12 02:18:08;;;;;;;41.45;25.88;;;13.40;99.90;;;;;;5463445;26;20022;-70
2024/04/12 02:20:35;;;;;;;41.40;25.58;;;13.40;99.90;;;;;;5464919;26;20030;-69
2024/04/12 02:23:05;;;;;;;42.42;26.92;;;13.40;99.90;;;;;;5468563;26;20030;-69
2024/04/12 02:25:36;;;;;;;40.20;26.10;;;13.40;99.90;;;;;;5470026;26;20034;-69
2024/04/12 02:28:11;;;;;;;42.70;26.40;;;13.50;99.90;;;;;;5474133;26;20034;-69
2024/04/12 02:30:41;;;;;;;41.88;27.20;;;13.40;99.90;;;;;;5478369;26;20046;-69
2024/04/12 02:33:09;;;;;;;42.03;25.52;;;13.40;99.90;;;;;;5472121;26;20035;-70
2024/04/12 02:35:41;;;;;;;40.60;25.33;;;13.40;99.90;;;;;;5463402;26;20026;-70
2024/04/12 02:38:15;;;;;;;36.90;24.48;;;13.40;99.90;;;;;;5484088;26;20540;-70
2024/04/12 02:40:43;;;;;;;37.53;24.23;;;13.40;99.90;;;;;;5468876;26;20033;-68
2024/04/12 02:43:15;;;;;;;37.25;24.80;;;13.40;99.90;;;;;;5466384;26;20027;-68
2024/04/12 02:45:51;;;;;;;37.60;24.07;;;13.40;99.90;;;;;;5467289;26;20038;-68
2024/04/12 02:48:22;;;;;;;37.17;23.20;;;13.50;99.90;;;;;;5472289;26;20761;-69
2024/04/12 02:50:59;;;;;;;34.22;22.85;;;13.50;99.90;;;;;;5475988;26;20466;-68
2024/04/12 02:53:27;;;;;;;34.78;23.17;;;13.50;99.90;;;;;;5458619;26;20035;-68
2024/04/12 02:56:01;;;;;;;36.55;24.02;;;13.50;99.90;;;;;;5476850;26;20030;-68
2024/04/12 02:58:37;;;;;;;38.58;23.73;;;13.50;99.90;;;;;;5482478;26;20117;-69
2024/04/12 03:01:13;;;;;;;33.72;22.35;;;13.50;99.90;;;;;;5462198;26;20026;-68
2024/04/12 03:03:47;;;;;;;35.25;22.83;;;13.40;99.90;;;;;;5481705;26;20030;-68
2024/04/12 03:06:22;;;;;;;35.60;22.50;;;13.40;99.90;;;;;;5476359;26;20046;-68
2024/04/12 03:08:51;;;;;;;34.78;21.75;;;13.40;99.90;;;;;;5473580;26;20039;-68
2024/04/12 03:11:22;;;;;;;33.88;22.25;;;13.40;99.90;;;;;;5467086;26;20038;-68
2024/04/12 03:13:58;;;;;;;33.53;22.10;;;13.40;99.90;;;;;;5466520;26;20035;-68
2024/04/12 03:16:25;;;;;;;32.30;22.13;;;13.40;99.90;;;;;;5455451;26;20030;-68
2024/04/12 03:18:52;;;;;;;30.85;20.55;;;13.40;99.90;;;;;;5483613;26;20034;-68
2024/04/12 03:21:21;;;;;;;31.42;21.60;;;13.40;99.90;;;;;;5468661;26;20489;-68
2024/04/12 03:23:49;;;;;;;30.10;20.95;;;13.40;99.90;;;;;;5463155;26;20026;-68
2024/04/12 03:26:18;;;;;;;28.25;19.92;;;13.40;99.90;;;;;;5473459;26;20038;-68
2024/04/12 03:28:46;;;;;;;29.45;18.42;;;13.40;99.90;;;;;;5484366;26;20490;-68
2024/04/12 03:31:13;;;;;;;27.63;17.77;;;13.40;99.90;;;;;;5468353;26;20482;-68
2024/04/12 03:33:43;;;;;;;25.73;17.40;;;13.30;99.90;;;;;;5475058;26;20030;-68
2024/04/12 03:41:52;;;;;;;20.73;13.65;;;13.40;99.90;;;;;;5473187;25;20037;-68
2024/04/12 03:44:19;;;;;;;19.80;13.55;;;13.40;99.90;;;;;;5455696;26;20379;-68
2024/04/12 03:46:50;;;;;;;18.73;12.00;;;13.40;99.90;;;;;;5456674;26;20381;-68
2024/04/12 03:49:21;;;;;;;18.52;11.63;;;13.40;99.90;;;;;;5467342;26;20026;-68
2024/04/12 03:51:54;;;;;;;17.60;11.35;;;13.40;99.90;;;;;;5466354;26;20022;-68
2024/04/12 03:54:22;;;;;;;15.65;10.63;;;13.40;99.90;;;;;;5459418;26;20031;-68
2024/04/12 03:56:51;;;;;;;16.00;11.65;;;13.30;99.90;;;;;;5458553;26;20039;-68
2024/04/12 03:59:20;;;;;;;17.52;11.50;;;13.30;99.90;;;;;;5473963;26;20038;-68
2024/04/12 04:01:48;;;;;;;16.88;10.65;;;13.30;99.90;;;;;;5459799;26;20039;-68
2024/04/12 04:04:19;;;;;;;17.33;11.10;;;13.30;99.90;;;;;;5462450;26;20031;-68
2024/04/12 04:06:54;;;;;;;16.08;10.88;;;13.30;99.90;;;;;;5469000;26;20030;-68
2024/04/12 04:09:22;;;;;;;16.55;11.50;;;13.30;99.90;;;;;;5478889;26;20022;-68
2024/04/12 04:11:53;;;;;;;20.00;11.90;;;13.30;99.90;;;;;;5453644;26;20027;-68
2024/04/12 04:14:21;;;;;;;15.95;11.05;;;13.20;99.90;;;;;;5470922;26;20034;-69
2024/04/12 04:16:51;;;;;;;17.17;11.13;;;13.30;99.90;;;;;;5473932;26;20377;-68
2024/04/12 04:19:19;;;;;;;16.38;11.55;;;13.20;99.90;;;;;;5477567;26;20029;-68
2024/04/12 04:21:46;;;;;;;16.10;11.18;;;13.20;99.90;;;;;;5467854;26;20026;-68
2024/04/12 04:24:13;;;;;;;18.65;11.40;;;13.20;99.90;;;;;;5467465;26;20030;-68
2024/04/12 04:26:41;;;;;;;16.60;10.57;;;13.20;99.90;;;;;;5476365;26;20034;-68
2024/04/12 04:29:11;;;;;;;15.15;10.85;;;13.20;99.90;;;;;;5477656;26;20370;-69
2024/04/12 04:31:49;;;;;;;15.68;10.25;;;13.20;99.90;;;;;;5476298;26;20034;-68
2024/04/12 04:34:20;;;;;;;16.67;10.10;;;13.20;99.90;;;;;;5468243;26;20039;-68
2024/04/12 04:36:49;;;;;;;18.35;10.25;;;13.20;99.90;;;;;;5484225;26;20026;-68
2024/04/12 04:39:17;;;;;;;17.88;10.48;;;13.20;99.90;;;;;;5456050;26;20031;-68
2024/04/12 04:41:46;;;;;;;15.60;10.55;;;13.20;99.90;;;;;;5476331;26;20465;-68
2024/04/12 04:44:15;;;;;;;15.75;10.23;;;13.20;99.90;;;;;;5465532;26;20030;-68
2024/04/12 04:46:45;;;;;;;16.05;9.95;;;13.20;99.90;;;;;;5481060;26;20025;-68
2024/04/12 04:49:13;;;;;;;15.98;9.57;;;13.20;99.90;;;;;;5469247;26;20030;-68
2024/04/12 04:51:40;;;;;;;13.57;8.88;;;13.10;99.90;;;;;;5463292;26;20031;-68
2024/04/12 04:54:11;;;;;;;14.13;9.02;;;13.10;99.90;;;;;;5464055;26;20033;-68
2024/04/12 04:56:42;;;;;;;13.43;8.50;;;13.10;99.90;;;;;;5457003;26;20035;-68
2024/04/12 04:59:16;;;;;;;15.38;8.75;;;13.10;99.90;;;;;;5479762;26;20468;-68
2024/04/12 05:01:49;;;;;;;15.23;9.27;;;13.20;99.90;;;;;;5465444;26;20026;-69
2024/04/12 05:04:21;;;;;;;14.45;8.77;;;13.10;99.90;;;;;;5469174;26;20474;-69
2024/04/12 05:06:50;;;;;;;13.52;8.85;;;13.10;99.90;;;;;;5474296;26;20050;-69
2024/04/12 05:09:19;;;;;;;12.80;8.10;;;13.10;99.90;;;;;;5465565;26;20030;-69
2024/04/12 05:11:49;;;;;;;12.27;8.55;;;13.10;99.90;;;;;;5473639;26;20030;-69
2024/04/12 05:17:05;;;;;;;14.70;8.75;;;13.10;99.90;;;;;;5473351;26;20474;-68
2024/04/12 05:19:40;;;;;;;15.25;8.13;;;13.10;99.90;;;;;;5467646;26;20362;-68
2024/04/12 05:22:19;;;;;;;13.15;9.00;;;13.10;99.90;;;;;;5462453;26;20490;-68
2024/04/12 05:24:46;;;;;;;12.65;8.90;;;13.10;99.90;;;;;;5481115;26;20030;-68
2024/04/12 05:27:13;;;;;;;14.52;8.93;;;13.10;99.90;;;;;;5473704;26;20374;-68
2024/04/12 05:29:45;;;;;;;15.35;9.38;;;13.10;99.90;;;;;;5462381;26;20026;-68
2024/04/12 05:32:12;;;;;;;13.98;9.07;;;13.10;99.90;;;;;;5470081;26;20493;-68
2024/04/12 05:34:40;;;;;;;18.85;9.15;;;13.10;99.90;;;;;;5455094;26;20038;-68
2024/04/12 05:37:08;;;;;;;15.98;8.90;;;13.10;99.90;;;;;;5469491;26;20038;-68
2024/04/12 05:39:36;;;;;;;15.32;8.90;;;13.10;99.90;;;;;;5470117;26;20494;-68
2024/04/12 05:42:07;;;;;;;13.85;8.88;;;13.10;99.90;;;;;;5456997;26;20042;-68
2024/04/12 05:44:34;;;;;;;14.82;8.82;;;13.10;99.90;;;;;;5463415;26;20012;-68
2024/04/12 05:47:02;;;;;;;14.57;8.98;;;13.10;99.90;;;;;;5467421;26;20034;-68
2024/04/12 05:49:30;;;;;;;14.93;9.43;;;13.10;99.90;;;;;;5479762;26;20035;-68
2024/04/12 05:52:01;;;;;;;16.70;8.93;;;13.10;99.90;;;;;;5480758;26;20373;-68
2024/04/12 05:54:39;;;;;;;15.43;9.10;;;13.10;99.90;;;;;;5478202;26;20042;-68
2024/04/12 05:57:10;;;;;;;15.60;10.18;;;13.00;99.90;;;;;;5454900;26;20042;-68
2024/04/12 05:59:42;;;;;;;16.25;9.77;;;13.00;99.90;;;;;;5463703;26;20034;-68
2024/04/12 06:02:16;;;;;;;13.90;8.90;;;13.00;99.90;;;;;;5465967;26;20027;-68
2024/04/12 06:04:47;;;;;;;13.65;8.32;;;13.10;99.90;;;;;;5460978;26;20027;-68
2024/04/12 06:07:14;;;;;;;15.70;9.10;;;13.10;99.90;;;;;;5473935;26;20502;-68
2024/04/12 06:09:41;;;;;;;16.63;9.35;;;13.10;99.90;;;;;;5474281;26;20038;-68
2024/04/12 06:12:09;;;;;;;13.35;8.98;;;13.10;99.90;;;;;;5462357;26;20482;-68
2024/04/12 06:14:39;;;;;;;13.60;8.48;;;13.10;99.90;;;;;;5460330;26;20553;-68
2024/04/12 06:17:08;;;;;;;15.57;8.43;;;13.10;99.90;;;;;;5476743;26;20057;-68
2024/04/12 06:19:39;;;;;;;13.15;8.77;;;13.20;99.90;;;;;;5469610;26;20038;-68
2024/04/12 06:22:13;;;;;;;15.45;8.95;;;13.10;99.90;;;;;;5464227;26;20034;-68
2024/04/12 06:24:48;;;;;;;15.20;9.40;;;13.20;99.90;;;;;;5463612;26;20033;-68
2024/04/12 06:27:29;;;;;;;16.15;8.40;;;13.20;99.90;;;;;;5471788;26;20029;-68
2024/04/12 06:29:59;;;;;;;15.10;8.25;;;13.20;99.90;;;;;;5462595;26;20038;-68
2024/04/12 06:32:27;;;;;;;13.63;7.68;;;13.20;99.90;;;;;;5464625;26;20042;-68
2024/04/12 06:34:54;;;;;;;14.90;8.88;;;13.20;99.90;;;;;;5471243;26;20023;-68
2024/04/12 06:37:21;;;;;;;15.20;8.65;;;13.30;99.90;;;;;;5468888;26;20370;-68
2024/04/12 06:39:48;;;;;;;12.77;8.90;;;13.30;99.90;;;;;;5474122;26;20026;-68
2024/04/12 06:42:15;;;;;;;13.77;8.60;;;13.30;99.90;;;;;;5466937;26;20791;-68
2024/04/12 06:44:50;;;;;;;13.80;8.65;;;13.40;99.90;;;;;;5475600;26;20032;-68
2024/04/12 06:47:18;;;;;;;16.80;8.32;;;13.40;99.90;;;;;;5462881;26;20755;-68
2024/04/12 06:49:45;;;;;;;13.75;9.20;;;13.50;99.90;;;;;;5462214;26;20038;-68
2024/04/12 06:52:14;;;;;;;14.25;9.35;;;13.50;99.90;;;;;;5477630;26;20030;-69
2024/04/12 06:54:42;;;;;;;15.75;9.65;;;13.60;99.90;;;;;;5467746;26;20464;-69
2024/04/12 06:57:21;;;;;;;13.52;9.18;;;13.60;99.90;;;;;;5464002;26;20431;-68
2024/04/12 06:59:58;;;;;;;13.63;9.13;;;13.60;99.90;;;;;;5453176;26;20031;-69
2024/04/12 07:02:25;;;;;;;18.35;10.05;;;13.70;99.90;;;;;;5461791;26;20023;-69
2024/04/12 07:04:54;;;;;;;17.20;9.68;;;13.70;99.90;;;;;;5470078;26;20544;-68
2024/04/12 07:07:23;;;;;;;15.20;10.07;;;13.80;99.90;;;;;;5458110;26;20007;-68
2024/04/12 07:10:01;;;;;;;14.68;9.38;;;13.80;99.90;;;;;;5463181;25;20031;-69
2024/04/12 07:12:31;;;;;;;15.75;9.13;;;13.80;99.90;;;;;;5464138;26;20030;-68
2024/04/12 07:14:57;;;;;;;15.38;10.05;;;13.80;99.90;;;;;;5463233;26;20035;-68
2024/04/12 07:17:25;;;;;;;14.20;9.95;;;13.90;99.90;;;;;;5458908;26;20035;-69
2024/04/12 07:19:54;;;;;;;15.63;9.98;;;13.90;99.90;;;;;;5472969;26;20033;-69
2024/04/12 07:22:22;;;;;;;18.75;10.50;;;13.90;99.90;;;;;;5459416;26;20034;-69
2024/04/12 07:24:50;;;;;;;14.38;9.65;;;13.90;99.90;;;;;;5454652;26;20119;-69
2024/04/12 07:27:18;;;;;;;14.45;9.88;;;13.90;99.90;;;;;;5470218;26;20057;-69
2024/04/12 07:29:46;;;;;;;13.43;9.85;;;13.90;99.90;;;;;;5461967;26;20481;-68
2024/04/12 07:32:17;;;;;;;12.93;9.60;;;13.90;99.90;;;;;;5465504;26;20030;-69
2024/04/12 07:34:50;;;;;;;13.48;9.25;;;14.00;99.90;;;;;;5456201;26;20038;-69
2024/04/12 07:37:32;;;;;;;14.68;9.63;;;14.00;99.90;;;;;;5459124;26;20035;-69
2024/04/12 07:40:15;;;;;;;16.42;9.32;;;14.10;99.90;;;;;;5465188;26;20038;-69
2024/04/12 07:42:46;;;;;;;14.38;10.05;;;14.10;99.90;;;;;;5456085;26;20352;-69
2024/04/12 07:45:23;;;;;;;15.93;10.10;;;14.10;99.90;;;;;;5476833;26;20030;-69
2024/04/12 07:47:55;;;;;;;14.57;9.15;;;14.20;99.90;;;;;;5464575;26;20035;-69
2024/04/12 07:50:28;;;;;;;17.23;9.63;;;14.40;99.90;;;;;;5468428;26;20042;-69
2024/04/12 07:53:43;;;;;;;16.08;9.45;;;14.50;99.90;;;;;;5465355;26;20031;-69
2024/04/12 07:56:07;;;;;;;15.65;8.85;;;14.60;99.90;;;;;;5481899;25;20053;-69
2024/04/12 07:58:40;;;;;;;15.10;8.68;;;14.70;99.90;;;;;;5474054;26;20380;-69
2024/04/12 08:01:09;;;;;;;13.20;8.15;;;14.80;99.90;;;;;;5457010;26;20438;-70
2024/04/12 08:03:40;;;;;;;14.95;8.20;;;14.90;99.90;;;;;;5479354;26;20026;-69
2024/04/12 08:06:18;;;;;;;14.05;7.97;;;15.00;99.90;;;;;;5475960;26;20034;-69
2024/04/12 08:08:47;;;;;;;11.98;7.50;;;15.00;99.90;;;;;;5479960;26;20038;-69
2024/04/12 08:11:34;;;;;;;12.63;7.03;;;15.10;99.90;;;;;;5458411;26;20031;-70
2024/04/12 08:14:08;;;;;;;13.77;7.75;;;15.10;99.90;;;;;;5469004;26;20047;-69
2024/04/12 08:16:36;;;;;;;11.98;8.02;;;15.20;99.90;;;;;;5466705;26;20046;-70
2024/04/12 08:19:21;;;;;;;14.57;8.05;;;15.30;99.90;;;;;;5476479;26;20035;-70
2024/04/12 08:21:54;;;;;;;10.50;7.60;;;15.30;99.90;;;;;;5471310;26;20057;-69
2024/04/12 08:24:24;;;;;;;13.23;7.95;;;15.30;99.90;;;;;;5479485;26;20026;-69
2024/04/12 08:26:51;;;;;;;14.30;8.27;;;15.40;99.90;;;;;;5483619;26;20349;-69
2024/04/12 08:29:23;;;;;;;14.95;8.55;;;15.50;99.90;;;;;;5473464;26;20022;-69
2024/04/12 08:32:04;;;;;;;12.60;8.80;;;15.50;99.90;;;;;;5454312;26;20035;-69
2024/04/12 08:34:33;;;;;;;14.90;8.07;;;15.50;99.90;;;;;;5465258;26;20384;-69
2024/04/12 08:37:12;;;;;;;13.73;9.18;;;15.60;99.90;;;;;;5483581;26;20034;-69
2024/04/12 08:39:43;;;;;;;15.88;8.35;;;15.60;99.90;;;;;;5471152;26;20039;-70
2024/04/12 08:42:14;;;;;;;13.75;7.95;;;15.70;99.90;;;;;;5462714;26;20038;-70
2024/04/12 08:44:51;;;;;;;16.92;8.23;;;15.70;99.90;;;;;;5467959;26;20030;-70
2024/04/12 08:50:03;;;;;;;14.30;7.35;;;15.80;99.90;;;;;;5476760;26;20022;-71
2024/04/12 08:52:42;;;;;;;14.05;8.18;;;15.90;99.90;;;;;;5478980;26;20022;-70
2024/04/12 08:55:13;;;;;;;15.65;8.18;;;15.90;99.90;;;;;;5457853;26;20040;-70
2024/04/12 08:57:44;;;;;;;12.73;7.27;;;16.00;99.90;;;;;;5465819;26;20035;-70
2024/04/12 09:00:28;;;;;;;13.00;7.88;;;16.10;99.90;;;;;;5461648;26;20030;-70
2024/04/12 09:03:02;;;;;;;13.02;7.10;;;16.10;99.90;;;;;;5470723;26;20034;-70
2024/04/12 09:05:32;;;;;;;11.38;6.90;;;16.20;99.90;;;;;;5456032;26;20035;-70
2024/04/12 09:08:00;;;;;;;13.23;7.03;;;16.30;99.90;;;;;;5466825;26;20475;-70
2024/04/12 09:10:34;;;;;;;13.40;6.32;;;16.30;99.90;;;;;;5462498;26;20039;-70
2024/04/12 09:13:02;;;;;;;16.05;7.45;;;16.30;99.90;;;;;;5467377;26;20037;-71
2024/04/12 09:15:32;;;;;;;19.83;7.25;;;16.30;99.90;;;;;;5479666;26;20030;-72
2024/04/12 09:18:00;;;;;;;11.52;6.60;;;16.20;99.90;;;;;;5466664;26;20482;-70
2024/04/12 09:20:35;;;;;;;11.75;6.60;;;16.20;99.90;;;;;;5472564;26;20038;-70
2024/04/12 09:23:15;;;;;;;16.27;6.75;;;16.20;99.90;;;;;;5480778;26;20037;-70
2024/04/12 09:25:54;;;;;;;12.32;6.50;;;16.20;99.90;;;;;;5474877;26;20028;-69
2024/04/12 09:28:30;;;;;;;13.80;6.47;;;16.20;99.90;;;;;;5462458;26;20875;-69
2024/04/12 09:33:56;;;;;;;11.32;6.35;;;16.10;99.90;;;;;;5479027;26;20026;-70
2024/04/12 09:36:39;;;;;;;14.57;6.95;;;16.20;99.90;;;;;;5472415;26;20030;-69
2024/04/12 09:39:14;;;;;;;14.10;6.05;;;16.20;99.90;;;;;;5474743;26;20049;-70
2024/04/12 09:41:53;;;;;;;11.43;6.55;;;16.20;99.90;;;;;;5470553;26;20026;-70
2024/04/12 09:44:27;;;;;;;11.80;6.60;;;16.30;99.90;;;;;;5466710;26;20026;-70
2024/04/12 10:37:30;;;;;;;10.98;5.10;;;17.90;99.90;;;;;;5465260;26;20033;-70
2024/04/12 10:40:04;;;;;;;10.57;4.85;;;18.00;99.90;;;;;;5457040;26;20489;-70
2024/04/12 10:42:31;;;;;;;9.77;5.68;;;18.20;99.90;;;;;;5463309;26;20026;-70
2024/04/12 10:45:01;;;;;;;10.10;4.90;;;18.30;99.90;;;;;;5461995;26;20031;-70
2024/04/12 10:47:28;;;;;;;7.20;4.15;;;18.30;99.90;;;;;;5462343;26;20034;-70
2024/04/12 10:49:56;;;;;;;9.38;4.57;;;18.40;99.90;;;;;;5450124;26;20027;-70
2024/04/12 10:52:30;;;;;;;8.88;4.68;;;18.50;99.90;;;;;;5480315;26;20050;-70
2024/04/12 10:54:58;;;;;;;9.25;4.97;;;18.50;99.90;;;;;;5465004;26;20476;-70
2024/04/12 10:57:29;;;;;;;11.13;4.57;;;18.60;99.90;;;;;;5467335;26;20026;-70
2024/04/12 11:00:01;;;;;;;11.23;4.80;;;18.70;99.90;;;;;;5454312;26;20026;-70
2024/04/12 11:02:36;;;;;;;11.55;5.03;;;18.80;99.90;;;;;;5462144;26;20170;-70
2024/04/12 11:07:47;;;;;;;7.90;4.20;;;19.00;99.90;;;;;;5480319;26;20034;-70
2024/04/12 11:10:37;;;;;;;11.75;4.90;;;19.00;99.90;;;;;;5456089;26;20027;-71
2024/04/12 11:13:22;;;;;;;9.45;4.68;;;18.90;99.90;;;;;;5465057;26;20026;-70
2024/04/12 11:32:23;;;;;;;4.70;2.55;;;18.90;99.90;;;;;;5454280;26;20027;-69
2024/04/12 11:34:51;;;;;;;7.47;2.70;;;18.80;99.90;;;;;;5461174;26;20628;-69
2024/04/12 11:37:24;;;;;;;4.43;2.20;;;18.80;99.90;;;;;;5469914;26;20030;-69
2024/04/12 11:39:53;;;;;;;5.47;2.53;;;18.90;99.90;;;;;;5458145;26;20039;-69
2024/04/12 11:42:20;;;;;;;5.18;3.05;;;18.90;99.90;;;;;;5467159;26;20469;-69
2024/04/12 11:44:53;;;;;;;6.05;2.80;;;19.00;99.90;;;;;;5454000;26;20039;-69
2024/04/12 11:47:23;;;;;;;6.93;2.60;;;19.00;99.90;;;;;;5467410;26;20026;-69
2024/04/12 11:49:57;;;;;;;5.65;2.60;;;19.00;99.90;;;;;;5452153;26;20027;-69
2024/04/12 11:52:25;;;;;;;5.30;2.38;;;19.10;99.90;;;;;;5479691;26;20508;-69
2024/04/12 11:54:58;;;;;;;7.22;3.13;;;19.20;99.90;;;;;;5458420;26;20043;-69
2024/04/12 11:57:29;;;;;;;5.93;2.70;;;19.20;99.90;;;;;;5464031;26;20023;-69
2024/04/12 12:00:00;;;;;;;3.90;2.45;;;19.30;99.90;;;;;;5466510;26;20027;-70
2024/04/12 12:02:31;;;;;;;4.82;2.13;;;19.30;99.90;;;;;;5464826;26;20031;-70
2024/04/12 12:04:59;;;;;;;6.45;2.22;;;19.30;99.90;;;;;;5465384;26;20023;-70
2024/04/12 12:07:29;;;;;;;6.30;2.10;;;19.30;99.90;;;;;;5461301;26;20034;-70
2024/04/12 12:09:56;;;;;;;6.30;2.17;;;19.20;99.90;;;;;;5463946;26;20027;-70
2024/04/12 12:12:26;;;;;;;4.85;2.28;;;19.20;99.90;;;;;;5463189;26;20026;-70
2024/04/12 12:14:53;;;;;;;6.68;2.22;;;19.20;99.90;;;;;;5452609;26;20478;-70
2024/04/12 12:17:21;;;;;;;5.10;2.42;;;19.20;99.90;;;;;;5457128;26;20032;-70
2024/04/12 12:19:52;;;;;;;5.25;2.03;;;19.20;99.90;;;;;;5483658;26;20029;-70
2024/04/12 12:22:21;;;;;;;7.63;2.20;;;19.20;99.90;;;;;;5473129;26;20031;-70
2024/04/12 12:24:48;;;;;;;5.90;2.15;;;19.10;99.90;;;;;;5470054;26;20289;-70
2024/04/12 12:27:19;;;;;;;5.47;1.90;;;19.10;99.90;;;;;;5459331;26;20509;-70
2024/04/12 12:29:49;;;;;;;5.60;1.80;;;19.20;99.90;;;;;;5462450;26;20025;-70
2024/04/12 12:32:16;;;;;;;8.63;2.17;;;19.30;99.90;;;;;;5457609;26;20022;-70
2024/04/12 12:34:46;;;;;;;6.75;1.67;;;19.40;99.90;;;;;;5462465;26;20018;-71
2024/04/12 12:37:13;;;;;;;4.47;1.52;;;19.40;99.90;;;;;;5471604;26;20022;-70
2024/04/12 12:39:41;;;;;;;3.15;1.45;;;19.40;99.90;;;;;;5454704;26;20036;-71
2024/04/12 12:42:12;;;;;;;5.00;1.33;;;19.40;99.90;;;;;;5470737;26;20035;-70
2024/04/12 12:44:39;;;;;;;4.05;1.52;;;19.30;99.90;;;;;;5464235;26;20031;-71
2024/04/12 12:47:06;;;;;;;4.40;1.42;;;19.30;99.90;;;;;;5471320;26;20030;-71
2024/04/12 12:49:53;;;;;;;3.78;1.13;;;19.30;99.90;;;;;;5451745;26;20026;-71
2024/04/12 12:52:20;;;;;;;5.90;1.38;;;19.40;99.90;;;;;;5478865;26;20376;-70
2024/04/12 12:54:47;;;;;;;3.22;1.13;;;19.30;99.90;;;;;;5458223;26;20026;-71
2024/04/12 12:57:17;;;;;;;4.78;1.45;;;19.40;99.90;;;;;;5463275;26;20035;-70
2024/04/12 12:59:44;;;;;;;5.20;1.60;;;19.30;99.90;;;;;;5467360;26;20026;-70
2024/04/12 13:02:15;;;;;;;6.85;1.50;;;19.30;99.90;;;;;;5460968;26;20023;-70
2024/04/12 13:04:43;;;;;;;3.22;1.50;;;19.40;99.90;;;;;;5454403;26;20461;-70
2024/04/12 13:07:13;;;;;;;5.25;1.75;;;19.40;99.90;;;;;;5459823;26;20032;-70
2024/04/12 13:09:40;;;;;;;8.05;2.22;;;19.50;99.90;;;;;;5465115;26;20035;-70
2024/04/12 13:12:10;;;;;;;3.67;1.60;;;19.50;99.90;;;;;;5461321;26;20038;-70
2024/04/12 13:14:39;;;;;;;4.47;1.90;;;19.60;99.90;;;;;;5465835;26;20034;-70
2024/04/12 13:17:14;;;;;;;4.60;1.70;;;19.60;99.90;;;;;;5456482;26;20022;-70
2024/04/12 13:19:41;;;;;;;5.90;1.77;;;19.70;99.90;;;;;;5466413;26;20026;-70
2024/04/12 13:22:13;;;;;;;5.65;1.95;;;19.70;99.90;;;;;;5461822;26;20032;-70
2024/04/12 13:24:40;;;;;;;7.73;2.07;;;19.70;99.90;;;;;;5467768;26;20023;-70
2024/04/12 13:27:07;;;;;;;6.22;1.98;;;19.70;99.90;;;;;;5460483;26;20038;-70
2024/04/12 13:29:36;;;;;;;5.47;2.00;;;19.80;99.90;;;;;;5458559;26;20022;-70
2024/04/12 13:32:10;;;;;;;5.32;1.98;;;19.70;99.90;;;;;;5460070;26;20038;-71
2024/04/12 13:34:40;;;;;;;7.90;2.03;;;19.60;99.90;;;;;;5461194;26;20018;-71
2024/04/12 13:37:07;;;;;;;9.93;2.42;;;19.60;99.90;;;;;;5470761;26;20026;-71
2024/04/12 13:39:34;;;;;;;6.60;2.38;;;19.60;99.90;;;;;;5454310;26;20030;-71
2024/04/12 13:42:10;;;;;;;7.38;2.35;;;19.50;99.90;;;;;;5468679;26;20386;-70
2024/04/12 13:52:56;;;;;;;6.97;2.60;;;19.70;99.90;;;;;;5463244;26;20039;-70
2024/04/12 13:55:24;;;;;;;9.50;2.28;;;19.60;99.90;;;;;;5456786;26;20370;-70
2024/04/12 13:57:52;;;;;;;8.35;2.20;;;19.70;99.90;;;;;;5463061;26;20036;-70
2024/04/12 14:00:30;;;;;;;6.85;2.30;;;19.70;99.90;;;;;;5464034;26;20036;-70
2024/04/12 14:02:58;;;;;;;6.80;2.00;;;19.60;99.90;;;;;;5470416;26;20038;-70
2024/04/12 14:05:27;;;;;;;4.35;2.25;;;19.60;99.90;;;;;;5468372;26;20035;-70
2024/04/12 14:07:57;;;;;;;5.05;2.10;;;19.60;99.90;;;;;;5467170;26;20033;-70
2024/04/12 14:10:24;;;;;;;7.15;2.22;;;19.70;99.90;;;;;;5455665;26;20034;-70
2024/04/12 14:12:51;;;;;;;4.85;2.35;;;19.80;99.90;;;;;;5463105;26;20453;-70
2024/04/12 14:15:21;;;;;;;5.55;2.20;;;19.90;99.90;;;;;;5455530;26;20027;-70
2024/04/12 14:17:51;;;;;;;6.95;2.50;;;19.90;99.90;;;;;;5459360;26;20034;-71
2024/04/12 14:20:20;;;;;;;5.15;2.40;;;20.00;99.90;;;;;;5467903;26;20473;-70
2024/04/12 14:22:47;;;;;;;7.38;2.10;;;20.00;99.90;;;;;;5476580;26;20481;-70
2024/04/12 14:25:14;;;;;;;7.28;2.40;;;19.90;99.90;;;;;;5468334;26;20026;-70
2024/04/12 14:27:41;;;;;;;7.57;2.60;;;19.80;99.90;;;;;;5452300;26;20026;-71